Time;durP1;ratioP1;P1;durP2;ratioP2;P2;SDS_P1;SDS_P2;PMS_P1;PMS_P2;Temp;Humidity;BMP_temperature;BMP_pressure;BME280_temperature;BME280_humidity;BME280_pressure;Samples;Min_cycle;Max_cycle;Signal;HPM_P1;HPM_P2
2022/10/11 03:49:58;;;;;;;10.83;9.63;;;;;;;13.33;100.00;99250.19;5134348;27;102648;-75
2022/10/11 03:52:26;;;;;;;14.87;13.27;;;;;;;13.59;100.00;99244.72;5089578;27;103112;-74
2022/10/11 03:54:54;;;;;;;21.98;19.27;;;;;;;13.83;100.00;99250.84;5107281;27;103544;-74
2022/10/11 03:57:21;;;;;;;16.92;15.07;;;;;;;14.08;100.00;99250.63;5112528;27;103329;-74
2022/10/11 03:59:49;;;;;;;18.50;15.23;;;;;;;14.33;100.00;99250.44;5097178;27;102773;-73
2022/10/11 04:02:17;;;;;;;12.40;11.13;;;;;;;14.57;100.00;99246.81;5088768;27;104174;-74
2022/10/11 04:04:45;;;;;;;15.97;13.87;;;;;;;14.74;100.00;99255.09;5088920;27;103584;-74
2022/10/11 04:07:14;;;;;;;14.18;12.63;;;;;;;14.99;100.00;99253.94;5090780;27;103772;-75
2022/10/11 04:09:42;;;;;;;16.90;13.98;;;;;;;15.14;100.00;99258.03;5093570;27;102700;-74
2022/10/11 04:12:09;;;;;;;17.83;14.75;;;;;;;15.24;100.00;99248.28;5106590;27;104107;-75
2022/10/11 04:14:37;;;;;;;16.73;14.93;;;;;;;15.31;100.00;99257.47;5088331;27;103726;-75
2022/10/11 04:17:05;;;;;;;20.02;15.07;;;;;;;15.39;100.00;99260.34;5098530;27;103252;-75
2022/10/11 04:19:32;;;;;;;13.52;12.23;;;;;;;15.46;100.00;99264.25;5083182;27;102694;-74
2022/10/11 04:22:00;;;;;;;12.73;11.02;;;;;;;15.64;100.00;99259.16;5103141;27;103000;-74
2022/10/11 04:24:29;;;;;;;11.85;10.65;;;;;;;15.83;100.00;99269.94;5108228;27;103437;-74
2022/10/11 04:26:57;;;;;;;14.27;12.30;;;;;;;15.81;100.00;99266.59;5109158;27;103250;-74
2022/10/11 04:29:25;;;;;;;13.30;12.00;;;;;;;15.90;100.00;99270.28;5085095;27;102858;-74
2022/10/11 04:31:59;;;;;;;16.95;14.20;;;;;;;16.14;100.00;99270.88;5090829;27;105380;-74
2022/10/11 04:34:27;;;;;;;13.37;11.30;;;;;;;16.15;100.00;99261.88;5102750;27;104114;-74
2022/10/11 04:36:54;;;;;;;20.35;14.65;;;;;;;16.17;100.00;99271.44;5107869;27;103296;-74
2022/10/11 04:39:22;;;;;;;17.35;14.27;;;;;;;16.28;100.00;99270.50;5109101;27;103141;-73
2022/10/11 04:41:51;;;;;;;10.77;9.77;;;;;;;16.30;100.00;99265.06;5085047;27;103110;-74
2022/10/11 04:44:19;;;;;;;11.93;10.73;;;;;;;16.56;100.00;99266.31;5106113;27;103387;-73
2022/10/11 04:46:47;;;;;;;19.70;15.68;;;;;;;16.46;100.00;99270.72;5091458;27;104679;-74
2022/10/11 04:49:15;;;;;;;22.60;16.92;;;;;;;16.21;100.00;99275.53;5113498;27;105351;-73
2022/10/11 04:51:42;;;;;;;23.53;19.87;;;;;;;16.07;100.00;99280.34;5094894;27;104270;-73
2022/10/11 04:54:10;;;;;;;21.67;17.33;;;;;;;16.19;100.00;99282.81;5102205;27;103844;-73
2022/10/11 04:56:38;;;;;;;20.58;16.60;;;;;;;16.52;98.37;99273.72;5090256;27;104410;-74
2022/10/11 04:59:07;;;;;;;13.98;12.57;;;;;;;16.71;98.02;99279.16;5108310;27;102723;-76
2022/10/11 05:01:35;;;;;;;16.57;13.40;;;;;;;16.80;96.63;99283.69;5072289;27;102795;-74
2022/10/11 05:04:03;;;;;;;15.50;13.35;;;;;;;16.71;94.72;99284.47;5074021;27;104164;-74
2022/10/11 05:06:31;;;;;;;19.35;15.30;;;;;;;16.51;96.73;99285.34;5091621;27;103272;-72
2022/10/11 05:08:59;;;;;;;11.77;10.57;;;;;;;16.75;96.14;99288.59;5092933;27;102677;-72
2022/10/11 05:11:27;;;;;;;12.35;10.43;;;;;;;16.85;95.55;99293.06;5074191;27;104371;-71
2022/10/11 05:13:55;;;;;;;10.90;9.45;;;;;;;16.93;94.38;99296.75;5089926;27;104009;-72
2022/10/11 05:16:24;;;;;;;10.88;9.55;;;;;;;16.98;93.98;99294.50;5070525;27;103277;-71
2022/10/11 05:18:52;;;;;;;13.15;11.30;;;;;;;16.99;93.45;99300.69;5100016;27;102693;-73
2022/10/11 05:21:23;;;;;;;15.27;11.05;;;;;;;17.04;92.63;99293.16;5076976;27;102781;-74
2022/10/11 05:23:54;;;;;;;11.13;9.43;;;;;;;17.04;92.60;99291.31;5093094;27;103381;-72
2022/10/11 05:26:23;;;;;;;9.97;8.43;;;;;;;17.08;92.62;99297.22;5096717;27;103214;-72
2022/10/11 05:28:51;;;;;;;8.93;8.10;;;;;;;17.11;91.97;99299.63;5077417;27;103415;-69
2022/10/11 05:31:20;;;;;;;10.13;9.13;;;;;;;17.09;91.78;99302.44;5088749;27;103871;-71
2022/10/11 05:33:49;;;;;;;11.23;9.40;;;;;;;17.12;91.40;99302.13;5096245;27;103848;-71
2022/10/11 05:36:17;;;;;;;11.63;10.07;;;;;;;17.16;91.35;99308.91;5091572;27;103244;-66
2022/10/11 05:38:45;;;;;;;9.88;8.88;;;;;;;17.18;91.28;99311.41;5088470;27;102641;-66
2022/10/11 05:41:15;;;;;;;11.48;9.10;;;;;;;17.21;91.06;99314.66;5068347;27;103689;-66
2022/10/11 05:43:45;;;;;;;12.32;10.70;;;;;;;17.21;90.79;99316.50;5083066;27;105328;-67
2022/10/11 05:46:13;;;;;;;10.55;9.45;;;;;;;17.23;90.59;99323.41;5066108;27;104334;-66
2022/10/11 05:48:41;;;;;;;20.27;13.97;;;;;;;17.07;90.22;99324.88;5084479;27;102869;-67
2022/10/11 05:51:11;;;;;;;13.27;11.80;;;;;;;17.00;91.01;99326.44;5081188;27;105421;-67
2022/10/11 05:53:39;;;;;;;18.52;13.45;;;;;;;16.85;91.13;99330.44;5089196;27;104141;-67
2022/10/11 05:56:18;;;;;;;19.50;13.43;;;;;;;16.65;91.20;99335.69;5059429;27;103569;-66
2022/10/11 05:58:45;;;;;;;16.45;12.95;;;;;;;16.65;92.68;99346.38;5017004;27;102847;-66
2022/10/11 06:01:18;;;;;;;18.50;14.10;;;;;;;16.28;93.49;99333.66;5021667;27;102677;-66
2022/10/11 06:03:46;;;;;;;17.70;13.17;;;;;;;16.23;93.98;99340.22;5037959;27;103950;-66
2022/10/11 06:06:16;;;;;;;16.55;13.45;;;;;;;16.19;94.40;99343.28;5038715;27;103215;-66
2022/10/11 06:08:44;;;;;;;20.60;14.77;;;;;;;16.05;95.56;99354.28;5041230;27;102586;-66
2022/10/11 06:11:14;;;;;;;16.08;12.10;;;;;;;16.01;97.66;99355.50;5038970;27;102984;-66
2022/10/11 06:13:42;;;;;;;19.90;15.07;;;;;;;15.63;98.98;99351.53;5038454;27;103846;-66
2022/10/11 06:16:13;;;;;;;20.67;14.65;;;;;;;15.72;97.65;99359.78;5039962;27;103236;-66
2022/10/11 06:18:40;;;;;;;15.93;13.18;;;;;;;16.17;96.00;99350.56;5040562;27;102745;-66
2022/10/11 06:21:08;;;;;;;20.35;14.27;;;;;;;16.00;96.00;99359.97;5041543;27;103905;-66
2022/10/11 06:23:37;;;;;;;16.53;12.70;;;;;;;16.13;95.29;99365.97;5022127;27;104366;-66
2022/10/11 06:26:07;;;;;;;15.17;13.33;;;;;;;15.96;96.52;99361.22;5041542;27;103319;-66
2022/10/11 06:28:36;;;;;;;15.40;12.00;;;;;;;16.19;95.65;99356.63;5042472;27;102777;-66
2022/10/11 06:31:05;;;;;;;13.30;11.90;;;;;;;16.10;96.13;99365.38;5035443;27;102932;-66
2022/10/11 06:33:34;;;;;;;17.60;14.50;;;;;;;16.12;93.74;99371.44;5036323;27;103337;-66
2022/10/11 06:36:07;;;;;;;18.52;13.43;;;;;;;15.75;95.50;99368.31;5040244;27;103208;-66
2022/10/11 06:38:37;;;;;;;19.83;14.85;;;;;;;15.79;95.68;99366.25;5042373;27;102601;-65
2022/10/11 06:41:13;;;;;;;13.15;11.48;;;;;;;16.31;94.34;99374.22;5042642;27;102702;-66
2022/10/11 06:43:43;;;;;;;19.95;13.95;;;;;;;16.20;93.65;99376.94;5023387;27;104857;-66
2022/10/11 06:46:12;;;;;;;16.42;12.82;;;;;;;16.23;94.37;99384.69;5040473;27;103193;-66
2022/10/11 06:48:40;;;;;;;18.90;13.70;;;;;;;16.32;93.04;99380.41;5040494;27;102665;-65
2022/10/11 06:51:08;;;;;;;12.90;10.63;;;;;;;16.55;92.31;99384.66;5042024;27;103735;-66
2022/10/11 06:53:37;;;;;;;12.10;10.50;;;;;;;16.71;91.60;99388.53;5025144;27;104480;-66
2022/10/11 06:56:10;;;;;;;18.23;12.98;;;;;;;16.25;92.20;99396.09;5038706;27;104789;-66
2022/10/11 06:58:38;;;;;;;20.33;13.77;;;;;;;16.22;93.33;99391.84;5040663;27;102643;-66
2022/10/11 07:01:08;;;;;;;16.40;13.52;;;;;;;16.48;91.81;99383.44;5023720;27;103582;-66
2022/10/11 07:03:38;;;;;;;14.90;12.52;;;;;;;16.75;91.61;99395.31;5041113;27;103290;-66
2022/10/11 07:06:08;;;;;;;19.80;15.57;;;;;;;16.51;90.52;99400.03;5041300;27;103284;-66
2022/10/11 07:08:39;;;;;;;14.00;12.50;;;;;;;16.65;91.14;99405.06;5041618;27;102741;-66
2022/10/11 07:11:08;;;;;;;14.57;12.98;;;;;;;16.42;93.54;99406.16;5020184;27;102685;-66
2022/10/11 07:13:37;;;;;;;16.20;13.40;;;;;;;16.60;92.23;99407.28;5041092;27;103721;-66
2022/10/11 07:16:06;;;;;;;13.60;12.20;;;;;;;16.25;94.43;99409.44;5021593;27;104154;-66
2022/10/11 07:18:36;;;;;;;22.13;16.30;;;;;;;16.16;93.49;99418.19;5041980;27;102718;-66
2022/10/11 07:22:22;;;;;;;21.55;16.17;;;;;;;16.66;91.20;99417.44;5123144;27;102665;-66
2022/10/11 07:24:50;;;;;;;21.27;15.70;;;;;;;16.36;90.71;99417.38;5097246;27;102610;-66
2022/10/11 07:27:18;;;;;;;15.32;13.68;;;;;;;16.56;91.68;99431.69;5072361;27;104361;-66
2022/10/11 07:29:46;;;;;;;20.03;15.40;;;;;;;16.69;89.91;99427.84;5099826;27;103525;-66
2022/10/11 07:32:15;;;;;;;18.13;15.00;;;;;;;16.55;90.56;99425.53;5097069;27;102743;-66
2022/10/11 07:34:42;;;;;;;16.13;13.80;;;;;;;16.64;91.71;99427.41;5100659;27;104299;-66
2022/10/11 07:37:10;;;;;;;18.88;15.68;;;;;;;16.67;90.09;99428.97;5098720;27;103359;-66
2022/10/11 07:39:39;;;;;;;20.77;17.25;;;;;;;16.01;93.02;99424.78;5096373;27;103232;-66
2022/10/11 07:42:08;;;;;;;15.32;13.80;;;;;;;16.48;92.30;99434.13;5097049;27;102601;-66
2022/10/11 07:44:36;;;;;;;17.63;14.48;;;;;;;16.65;91.43;99426.41;5080787;27;103839;-67
2022/10/11 07:47:04;;;;;;;17.52;13.05;;;;;;;16.66;91.88;99432.59;5096792;27;103396;-66
2022/10/11 07:49:37;;;;;;;18.20;14.20;;;;;;;16.63;90.48;99428.38;5098032;27;103194;-66
2022/10/11 07:52:05;;;;;;;14.80;11.57;;;;;;;16.83;88.36;99431.13;5098979;27;102570;-66
2022/10/11 07:54:33;;;;;;;17.45;13.90;;;;;;;16.69;90.58;99435.84;5098458;27;104032;-65
2022/10/11 07:57:02;;;;;;;21.75;15.68;;;;;;;16.29;90.52;99433.97;5098028;27;104084;-66
2022/10/11 07:59:30;;;;;;;13.80;12.32;;;;;;;16.59;92.13;99442.94;5098017;27;103315;-66
2022/10/11 08:01:58;;;;;;;17.02;13.13;;;;;;;16.78;90.48;99437.75;5095288;27;102759;-66
2022/10/11 08:04:28;;;;;;;19.27;14.18;;;;;;;16.67;90.74;99437.78;5097741;27;103779;-66
2022/10/11 08:06:55;;;;;;;19.80;15.07;;;;;;;15.68;95.72;99443.56;5095873;27;103478;-66
2022/10/11 08:09:23;;;;;;;15.48;12.95;;;;;;;16.15;95.82;99438.66;5097372;27;103362;-66
2022/10/11 08:11:51;;;;;;;16.30;13.98;;;;;;;16.37;93.76;99439.50;5095243;27;103886;-66
2022/10/11 08:14:20;;;;;;;18.05;14.35;;;;;;;16.10;93.86;99445.34;5096968;27;104207;-66
2022/10/11 08:16:48;;;;;;;22.73;14.50;;;;;;;16.08;94.68;99453.47;5095926;27;103611;-65
2022/10/11 08:19:17;;;;;;;19.63;14.60;;;;;;;15.79;96.12;99441.72;5097522;27;103246;-65
2022/10/11 08:21:45;;;;;;;20.15;15.65;;;;;;;15.92;96.19;99446.84;5099214;27;104048;-66
2022/10/11 08:24:13;;;;;;;18.55;14.23;;;;;;;16.20;95.73;99447.13;5098747;27;102631;-66
2022/10/11 08:26:41;;;;;;;22.25;15.75;;;;;;;16.49;93.69;99444.66;5097448;27;103919;-66
2022/10/11 08:29:10;;;;;;;20.20;15.40;;;;;;;16.41;91.75;99452.47;5097202;27;103305;-66
2022/10/11 08:31:39;;;;;;;22.45;16.45;;;;;;;15.91;95.21;99455.84;5089595;27;102674;-66
2022/10/11 08:34:07;;;;;;;17.83;15.40;;;;;;;15.88;95.84;99454.28;5083434;27;103875;-66
2022/10/11 08:36:36;;;;;;;20.67;15.27;;;;;;;16.18;94.68;99453.56;5062502;27;103283;-66
2022/10/11 08:39:05;;;;;;;17.90;15.20;;;;;;;16.34;94.84;99453.09;5057930;27;103551;-66
2022/10/11 08:41:39;;;;;;;17.75;15.85;;;;;;;16.03;95.65;99450.34;5062208;27;103064;-66
2022/10/11 08:44:31;;;;;;;22.87;16.70;;;;;;;15.65;97.13;99456.16;5056763;27;102930;-66
2022/10/11 08:47:26;;;;;;;23.63;18.08;;;;;;;16.06;95.45;99459.91;5083120;27;103787;-66
2022/10/11 08:49:54;;;;;;;21.73;16.63;;;;;;;16.53;93.23;99454.13;5080537;27;103230;-66
2022/10/11 08:52:27;;;;;;;18.38;15.18;;;;;;;16.39;94.23;99457.09;5084053;27;102534;-66
2022/10/11 08:55:01;;;;;;;21.85;17.15;;;;;;;16.09;96.23;99452.50;5083819;27;103969;-66
2022/10/11 08:57:33;;;;;;;21.58;16.08;;;;;;;15.96;95.65;99453.66;5058748;27;103918;-66
2022/10/11 09:00:04;;;;;;;23.07;17.10;;;;;;;15.52;97.87;99459.94;5064421;27;104622;-66
2022/10/11 09:02:40;;;;;;;22.67;16.73;;;;;;;16.23;94.12;99449.53;5062213;27;103443;-66
2022/10/11 09:05:34;;;;;;;20.83;15.90;;;;;;;15.86;94.80;99458.06;5075749;27;103532;-66
2022/10/11 09:08:08;;;;;;;21.70;16.30;;;;;;;15.80;97.32;99456.72;5082521;27;103359;-66
2022/10/11 09:10:53;;;;;;;21.27;16.38;;;;;;;16.05;96.18;99452.88;5082174;27;103265;-66
2022/10/11 09:13:40;;;;;;;23.40;16.35;;;;;;;15.64;96.05;99454.47;5082025;27;102955;-66
2022/10/11 09:16:18;;;;;;;23.07;17.27;;;;;;;15.80;96.29;99456.72;5079375;27;103007;-66
2022/10/11 09:19:05;;;;;;;22.90;15.63;;;;;;;15.64;96.25;99454.47;5082166;27;103434;-66
2022/10/11 09:21:42;;;;;;;19.33;14.93;;;;;;;15.81;95.90;99446.91;5083248;27;103759;-66
2022/10/11 09:24:37;;;;;;;16.10;14.05;;;;;;;16.87;93.58;99451.25;5080662;27;102651;-66
2022/10/11 09:27:17;;;;;;;21.50;15.80;;;;;;;16.19;93.24;99456.09;5077359;27;104241;-66
2022/10/11 09:29:55;;;;;;;12.85;11.57;;;;;;;17.28;90.78;99453.84;5081566;27;103321;-66
2022/10/11 09:32:28;;;;;;;18.70;14.43;;;;;;;16.99;88.51;99455.50;5083476;27;103216;-66
2022/10/11 09:35:08;;;;;;;20.80;15.05;;;;;;;16.68;93.16;99458.16;5080849;27;102616;-65
2022/10/11 09:37:43;;;;;;;13.57;10.88;;;;;;;17.63;89.47;99453.38;5082820;27;103876;-66
2022/10/11 09:40:32;;;;;;;17.05;12.95;;;;;;;17.60;87.32;99459.03;5081972;27;104290;-66
2022/10/11 09:42:59;;;;;;;16.50;13.38;;;;;;;17.14;89.05;99465.72;5080283;27;103451;-65
2022/10/11 09:45:27;;;;;;;19.93;14.80;;;;;;;16.33;89.80;99452.28;5057979;27;102623;-65
2022/10/11 09:47:59;;;;;;;19.52;14.70;;;;;;;16.29;91.20;99461.50;5081710;27;102581;-65
2022/10/11 09:50:31;;;;;;;19.50;14.38;;;;;;;16.30;92.20;99463.19;5080991;27;104069;-65
2022/10/11 09:53:02;;;;;;;18.05;13.85;;;;;;;16.35;91.79;99466.31;5081521;27;103275;-66
2022/10/11 09:55:34;;;;;;;17.48;14.30;;;;;;;16.72;90.05;99467.59;5080796;27;102735;-65
2022/10/11 09:58:03;;;;;;;17.57;13.60;;;;;;;16.39;89.82;99462.44;5082131;27;104150;-65
2022/10/11 10:00:33;;;;;;;18.15;14.57;;;;;;;16.24;91.32;99463.72;5083157;27;104179;-65
2022/10/11 10:03:03;;;;;;;18.38;13.70;;;;;;;16.04;92.05;99473.38;5060018;27;103206;-65
2022/10/11 10:05:35;;;;;;;18.67;13.68;;;;;;;16.37;90.53;99464.38;5079437;27;102563;-65
2022/10/11 10:08:21;;;;;;;17.55;13.43;;;;;;;16.17;91.64;99466.03;5082110;27;103816;-65
2022/10/11 10:11:00;;;;;;;17.83;13.90;;;;;;;16.33;91.45;99462.09;5081394;27;104282;-65
2022/10/11 10:13:37;;;;;;;18.63;12.85;;;;;;;16.43;90.23;99461.19;5078957;27;103249;-65
2022/10/11 10:16:10;;;;;;;13.65;11.63;;;;;;;17.09;88.10;99461.75;5062414;27;102759;-65
2022/10/11 10:18:43;;;;;;;15.80;12.73;;;;;;;17.16;86.51;99462.91;5082620;27;104041;-66
2022/10/11 10:21:15;;;;;;;16.75;13.75;;;;;;;17.11;86.85;99465.13;5056370;27;104422;-65
2022/10/11 10:23:43;;;;;;;16.88;13.30;;;;;;;16.61;89.03;99466.81;5081984;27;103289;-65
2022/10/11 10:26:13;;;;;;;17.27;12.95;;;;;;;16.42;89.59;99462.16;5082499;27;102653;-64
2022/10/11 10:28:56;;;;;;;18.10;13.60;;;;;;;16.52;90.16;99460.41;5063483;27;102747;-65
2022/10/11 10:31:34;;;;;;;16.63;12.80;;;;;;;16.30;91.14;99457.88;5082192;27;103298;-66
2022/10/11 10:34:26;;;;;;;20.23;14.47;;;;;;;16.41;90.44;99464.97;5082796;27;103512;-66
2022/10/11 10:37:01;;;;;;;14.75;12.70;;;;;;;16.91;88.71;99458.84;5063239;27;102774;-66
2022/10/11 10:39:36;;;;;;;16.83;12.53;;;;;;;16.88;89.15;99463.59;5081983;27;103869;-65
2022/10/11 10:42:11;;;;;;;15.75;12.85;;;;;;;16.74;89.67;99468.31;5081485;27;103301;-67
2022/10/11 10:44:38;;;;;;;14.10;11.65;;;;;;;16.68;89.01;99471.50;5082028;27;103207;-65
2022/10/11 10:47:14;;;;;;;18.10;13.37;;;;;;;16.33;89.59;99467.44;5084105;27;103396;-65
2022/10/11 10:49:44;;;;;;;15.75;12.20;;;;;;;16.95;87.75;99460.28;5081025;27;104081;-65
2022/10/11 10:52:57;;;;;;;17.67;13.90;;;;;;;17.11;86.55;99463.31;5083873;27;103348;-65
2022/10/11 10:55:29;;;;;;;11.32;10.20;;;;;;;17.35;87.62;99462.97;5056574;27;103427;-65
2022/10/11 10:58:05;;;;;;;13.70;10.73;;;;;;;17.73;83.56;99467.63;5080249;27;102741;-65
2022/10/11 11:00:42;;;;;;;12.75;10.23;;;;;;;17.62;83.30;99459.75;5080125;27;103920;-65
2022/10/11 11:03:14;;;;;;;13.82;11.82;;;;;;;17.17;83.86;99469.94;5081799;27;103337;-65
2022/10/11 11:05:48;;;;;;;13.20;11.40;;;;;;;17.53;82.85;99465.84;5081551;27;103366;-65
2022/10/11 11:08:29;;;;;;;15.70;11.82;;;;;;;17.47;84.55;99461.06;5081715;27;102659;-65
2022/10/11 11:11:06;;;;;;;15.45;12.00;;;;;;;17.91;80.55;99456.13;5081178;27;102662;-65
2022/10/11 11:13:45;;;;;;;14.35;10.73;;;;;;;18.22;80.83;99450.63;5070284;27;103333;-66
2022/10/11 11:16:22;;;;;;;14.23;10.97;;;;;;;18.48;81.11;99451.81;5052661;27;104849;-66
2022/10/11 11:18:57;;;;;;;10.57;9.48;;;;;;;18.80;78.04;99438.94;5078501;27;102990;-65
2022/10/11 11:21:35;;;;;;;13.48;10.07;;;;;;;18.89;76.66;99448.75;5080692;27;104132;-66
2022/10/11 11:24:18;;;;;;;16.08;10.73;;;;;;;18.64;78.71;99452.06;5079052;27;104410;-67
2022/10/11 11:26:52;;;;;;;11.77;10.57;;;;;;;18.97;77.02;99440.00;5080101;27;103485;-66
2022/10/11 11:29:36;;;;;;;10.75;9.60;;;;;;;19.20;75.42;99440.50;5058009;27;104135;-66
2022/10/11 11:32:16;;;;;;;11.27;10.00;;;;;;;19.19;74.70;99438.78;5063927;27;103600;-66
2022/10/11 11:34:48;;;;;;;12.80;11.40;;;;;;;19.27;76.17;99434.38;5079339;27;104116;-66
2022/10/11 11:37:23;;;;;;;13.15;11.15;;;;;;;19.13;75.80;99434.03;5081102;27;105062;-66
2022/10/11 11:39:57;;;;;;;14.48;10.80;;;;;;;18.99;75.82;99433.50;5059685;27;102703;-65
2022/10/11 11:42:30;;;;;;;12.98;9.95;;;;;;;19.35;74.02;99433.63;5078527;27;102718;-66
2022/10/11 11:45:04;;;;;;;12.43;11.05;;;;;;;19.65;72.95;99436.88;5063385;27;104166;-65
2022/10/11 11:47:36;;;;;;;12.67;11.03;;;;;;;19.35;74.82;99434.47;5080498;27;103255;-66
2022/10/11 11:50:21;;;;;;;11.52;10.32;;;;;;;18.84;77.70;99426.94;5079056;27;102771;-66
2022/10/11 11:52:54;;;;;;;13.75;11.00;;;;;;;18.71;76.07;99437.13;5061301;27;104223;-66
2022/10/11 11:55:32;;;;;;;14.70;13.05;;;;;;;18.29;76.79;99438.41;5082264;27;103610;-64
2022/10/11 11:58:12;;;;;;;11.73;10.13;;;;;;;18.82;75.36;99436.09;5081067;27;103352;-66
2022/10/11 12:00:51;;;;;;;12.90;10.20;;;;;;;19.09;73.86;99431.63;5079079;27;102689;-66
2022/10/11 12:03:25;;;;;;;13.80;10.80;;;;;;;19.30;75.00;99433.25;5081227;27;102602;-66
2022/10/11 12:06:19;;;;;;;10.07;9.02;;;;;;;19.26;74.10;99430.00;5082232;27;103448;-67
2022/10/11 12:08:49;;;;;;;11.85;9.75;;;;;;;19.42;74.24;99429.41;5078803;27;103280;-67
2022/10/11 12:11:24;;;;;;;16.27;11.30;;;;;;;18.58;76.40;99444.63;5085086;27;103998;-67
2022/10/11 12:13:55;;;;;;;9.85;8.63;;;;;;;19.10;75.63;99436.00;5078372;27;102812;-66
2022/10/11 12:16:26;;;;;;;13.23;11.00;;;;;;;18.72;75.39;99430.78;5079466;27;104613;-65
2022/10/11 12:19:00;;;;;;;10.70;9.68;;;;;;;19.34;74.47;99429.28;5052426;27;103356;-66
2022/10/11 12:21:31;;;;;;;11.05;9.52;;;;;;;19.20;75.04;99430.59;5082830;27;102743;-67
2022/10/11 12:24:09;;;;;;;8.83;7.93;;;;;;;19.39;74.11;99427.03;5064677;27;103703;-67
2022/10/11 12:26:41;;;;;;;12.93;9.70;;;;;;;19.27;73.80;99425.50;5083700;27;104187;-65
2022/10/11 12:29:44;;;;;;;11.13;9.80;;;;;;;19.14;74.54;99425.00;5060217;27;103234;-67
2022/10/11 12:32:48;;;;;;;11.75;10.00;;;;;;;18.62;76.60;99424.59;5082178;27;102747;-66
2022/10/11 12:36:04;;;;;;;10.50;9.33;;;;;;;19.03;74.77;99429.53;5083855;27;102937;-66
2022/10/11 12:38:38;;;;;;;11.85;8.57;;;;;;;19.28;73.38;99421.84;5036909;27;104427;-67
2022/10/11 12:41:49;;;;;;;10.95;9.75;;;;;;;19.38;75.08;99422.63;5038421;27;103369;-65
2022/10/11 12:44:22;;;;;;;10.15;9.10;;;;;;;19.36;73.47;99424.63;5075392;27;102642;-67
2022/10/11 12:47:20;;;;;;;10.48;7.30;;;;;;;19.63;72.97;99422.78;5076690;27;103381;-67
2022/10/11 12:50:03;;;;;;;8.25;7.45;;;;;;;19.77;72.40;99423.25;5058551;27;104051;-67
2022/10/11 12:52:40;;;;;;;10.63;8.55;;;;;;;19.19;73.85;99425.41;5079266;27;103265;-67
2022/10/11 12:55:34;;;;;;;9.10;8.15;;;;;;;19.50;72.67;99411.59;5058628;27;102789;-66
2022/10/11 12:58:27;;;;;;;11.05;9.00;;;;;;;18.77;73.53;99415.13;5054338;27;104056;-65
2022/10/11 13:01:16;;;;;;;10.40;8.33;;;;;;;18.68;74.48;99407.97;5072838;27;104079;-66
2022/10/11 13:03:48;;;;;;;10.48;8.63;;;;;;;18.94;74.62;99403.66;5082937;27;103407;-65
2022/10/11 13:06:19;;;;;;;10.20;8.30;;;;;;;18.95;74.80;99416.03;5072347;27;103064;-66
2022/10/11 13:08:53;;;;;;;12.20;9.88;;;;;;;18.29;74.86;99412.50;5059669;27;103831;-66
2022/10/11 13:11:29;;;;;;;10.38;9.27;;;;;;;18.48;75.51;99400.97;5081222;27;103206;-67
2022/10/11 13:14:00;;;;;;;8.98;7.80;;;;;;;19.04;74.56;99404.47;5082707;27;103155;-64
2022/10/11 13:16:41;;;;;;;11.10;9.37;;;;;;;18.87;74.39;99399.88;5080440;27;106034;-66
2022/10/11 13:19:13;;;;;;;11.53;9.50;;;;;;;18.42;74.05;99401.50;5081435;27;102665;-66
2022/10/11 13:21:42;;;;;;;14.95;10.43;;;;;;;18.39;75.57;99401.78;5082457;27;104066;-65
2022/10/11 13:24:15;;;;;;;13.07;8.75;;;;;;;18.78;74.49;99395.38;5080747;27;103280;-65
2022/10/11 13:26:45;;;;;;;12.30;8.90;;;;;;;18.98;74.65;99399.69;5083922;27;102679;-66
2022/10/11 13:29:16;;;;;;;8.65;7.75;;;;;;;18.63;76.12;99394.19;5077934;27;102976;-65
2022/10/11 13:31:46;;;;;;;13.23;9.25;;;;;;;18.66;74.80;99395.72;5082892;27;103412;-65
2022/10/11 13:34:15;;;;;;;14.35;9.45;;;;;;;18.69;74.26;99398.97;5080570;27;103590;-65
2022/10/11 13:36:55;;;;;;;13.97;10.47;;;;;;;17.95;76.88;99404.09;5078728;27;102982;-66
2022/10/11 13:39:27;;;;;;;14.00;9.63;;;;;;;17.89;77.87;99403.78;5082813;27;103046;-65
2022/10/11 13:41:59;;;;;;;10.27;8.30;;;;;;;18.41;76.88;99397.97;5075873;27;103330;-65
2022/10/11 13:44:31;;;;;;;9.15;7.80;;;;;;;18.75;75.27;99401.03;5076725;27;103905;-65
2022/10/11 13:46:59;;;;;;;10.85;7.82;;;;;;;19.25;74.18;99400.69;5076241;27;104402;-65
2022/10/11 13:49:36;;;;;;;13.80;9.18;;;;;;;18.68;74.99;99399.94;5057800;27;102898;-65
2022/10/11 13:52:06;;;;;;;10.88;9.70;;;;;;;18.00;76.63;99389.44;5060089;27;103369;-65
2022/10/11 13:54:54;;;;;;;11.80;8.77;;;;;;;18.62;75.50;99391.63;5057439;27;105827;-65
2022/10/11 13:57:27;;;;;;;11.60;8.20;;;;;;;18.93;75.43;99391.25;5058181;27;103127;-66
2022/10/11 13:59:56;;;;;;;11.93;8.53;;;;;;;19.10;74.34;99395.84;5081586;27;103168;-65
2022/10/11 14:02:27;;;;;;;13.20;9.60;;;;;;;18.41;76.80;99389.13;5059464;27;104198;-64
2022/10/11 14:04:54;;;;;;;9.77;8.75;;;;;;;18.56;75.33;99390.38;5077550;27;102993;-64
2022/10/11 14:07:26;;;;;;;13.18;9.27;;;;;;;18.93;74.71;99385.91;5075960;27;102648;-63
2022/10/11 14:09:55;;;;;;;12.68;9.18;;;;;;;18.29;75.88;99387.59;5070398;27;102957;-64
2022/10/11 14:12:31;;;;;;;11.60;9.63;;;;;;;17.93;76.76;99384.69;5050014;27;103348;-65
2022/10/11 14:15:01;;;;;;;11.13;9.07;;;;;;;18.42;76.83;99390.81;5078809;27;103840;-67
2022/10/11 14:17:39;;;;;;;12.70;8.67;;;;;;;18.51;75.66;99393.50;5057979;27;103000;-65
2022/10/11 14:20:15;;;;;;;11.32;8.68;;;;;;;18.95;73.26;99391.94;5081402;27;103972;-65
2022/10/11 14:22:43;;;;;;;15.18;11.73;;;;;;;18.71;73.97;99394.28;5061639;27;104290;-67
2022/10/11 14:25:11;;;;;;;18.60;13.82;;;;;;;18.48;74.76;99385.75;5072840;27;103241;-65
2022/10/11 14:27:41;;;;;;;12.60;10.30;;;;;;;18.79;73.52;99388.19;5079630;27;102522;-64
2022/10/11 14:30:17;;;;;;;13.95;10.82;;;;;;;18.57;73.98;99389.41;5079259;27;104006;-66
2022/10/11 14:32:59;;;;;;;12.15;9.25;;;;;;;18.99;74.03;99395.19;5052373;27;103836;-66
2022/10/11 14:35:34;;;;;;;14.32;9.20;;;;;;;18.86;73.63;99395.50;5071213;27;103242;-65
2022/10/11 14:38:02;;;;;;;14.23;9.77;;;;;;;18.52;73.59;99394.34;5070252;27;103184;-65
2022/10/11 14:40:31;;;;;;;9.97;8.57;;;;;;;19.06;73.81;99394.44;5057886;27;104106;-65
2022/10/11 14:43:01;;;;;;;15.27;9.20;;;;;;;18.53;73.99;99393.34;5080863;27;104115;-65
2022/10/11 14:45:30;;;;;;;12.67;9.13;;;;;;;18.50;74.37;99394.47;5052288;27;103462;-65
2022/10/11 14:47:58;;;;;;;11.88;9.55;;;;;;;18.19;75.74;99394.78;5057471;27;105381;-64
2022/10/11 14:50:35;;;;;;;12.30;9.00;;;;;;;18.38;75.14;99389.41;5080804;27;102932;-64
2022/10/11 14:53:03;;;;;;;12.77;9.10;;;;;;;17.94;76.87;99386.34;5079252;27;104255;-68
2022/10/11 14:55:31;;;;;;;11.48;8.75;;;;;;;18.75;74.12;99387.66;5078616;27;103187;-67
2022/10/11 14:57:59;;;;;;;12.10;9.38;;;;;;;18.34;75.16;99388.00;5082109;27;104467;-67
2022/10/11 15:00:29;;;;;;;12.38;9.50;;;;;;;18.30;75.75;99392.78;5082048;27;102646;-67
2022/10/11 15:02:58;;;;;;;12.20;9.70;;;;;;;18.38;74.75;99378.72;5078659;27;103777;-67
2022/10/11 15:05:28;;;;;;;10.47;8.63;;;;;;;18.83;73.62;99387.78;5080751;27;103335;-65
2022/10/11 15:08:01;;;;;;;13.15;10.15;;;;;;;18.24;75.79;99388.03;5074115;27;102896;-64
2022/10/11 15:10:30;;;;;;;16.17;12.53;;;;;;;17.89;77.15;99383.25;5057850;27;103547;-64
2022/10/11 15:12:59;;;;;;;13.88;11.50;;;;;;;18.36;76.27;99375.31;5067592;27;104240;-66
2022/10/11 15:15:29;;;;;;;14.15;10.05;;;;;;;18.33;75.96;99378.31;5065036;27;103246;-68
2022/10/11 15:18:00;;;;;;;13.53;9.43;;;;;;;18.40;76.14;99366.03;5068740;27;103006;-65
2022/10/11 15:20:31;;;;;;;16.27;13.43;;;;;;;17.78;77.58;99379.88;5072242;27;104379;-65
2022/10/11 15:23:00;;;;;;;21.70;15.70;;;;;;;17.99;77.11;99382.41;5044837;27;104414;-66
2022/10/11 15:25:28;;;;;;;13.20;10.37;;;;;;;18.11;76.54;99381.25;5064578;27;103485;-65
2022/10/11 15:27:57;;;;;;;16.55;11.93;;;;;;;17.83;76.89;99378.47;5063935;27;102740;-66